sensor_id;sensor_type;location;lat;lon;timestamp;pressure;altitude;pressure_sealevel;temperature;humidity
64228;BME280;50546;49.146;10.616;2022-09-09T00:04:36;96015.28;;;14.76;72.09
64228;BME280;50546;49.146;10.616;2022-09-09T00:10:04;96017.91;;;14.73;72.50
64228;BME280;50546;49.146;10.616;2022-09-09T00:15:14;96009.59;;;14.81;73.02
64228;BME280;50546;49.146;10.616;2022-09-09T00:18:12;95997.72;;;14.86;71.95
64228;BME280;50546;49.146;10.616;2022-09-09T00:20:46;96001.38;;;14.93;71.74
64228;BME280;50546;49.146;10.616;2022-09-09T00:23:37;96002.44;;;14.89;72.25
64228;BME280;50546;49.146;10.616;2022-09-09T00:26:33;96009.84;;;14.92;71.92
64228;BME280;50546;49.146;10.616;2022-09-09T00:31:34;96002.06;;;14.90;72.59
64228;BME280;50546;49.146;10.616;2022-09-09T00:34:18;96001.00;;;14.95;71.54
64228;BME280;50546;49.146;10.616;2022-09-09T00:36:48;96003.63;;;14.91;72.35
64228;BME280;50546;49.146;10.616;2022-09-09T00:39:44;96000.50;;;14.89;71.59
64228;BME280;50546;49.146;10.616;2022-09-09T00:42:18;96006.63;;;14.86;72.89
64228;BME280;50546;49.146;10.616;2022-09-09T00:53:05;96000.59;;;14.93;71.65
64228;BME280;50546;49.146;10.616;2022-09-09T00:55:48;96013.88;;;14.98;71.34
64228;BME280;50546;49.146;10.616;2022-09-09T00:58:17;96005.91;;;15.05;71.02
64228;BME280;50546;49.146;10.616;2022-09-09T01:00:44;96002.13;;;15.10;71.08
64228;BME280;50546;49.146;10.616;2022-09-09T01:03:33;95999.16;;;14.99;71.54
64228;BME280;50546;49.146;10.616;2022-09-09T01:16:59;96005.91;;;14.74;73.40
64228;BME280;50546;49.146;10.616;2022-09-09T01:25:12;96000.50;;;14.58;74.79
64228;BME280;50546;49.146;10.616;2022-09-09T01:27:41;96003.13;;;14.54;74.52
64228;BME280;50546;49.146;10.616;2022-09-09T01:30:13;96003.03;;;14.51;75.02
64228;BME280;50546;49.146;10.616;2022-09-09T01:32:45;95992.06;;;14.47;74.62
64228;BME280;50546;49.146;10.616;2022-09-09T01:35:19;95993.91;;;14.43;74.72
64228;BME280;50546;49.146;10.616;2022-09-09T01:37:50;95999.66;;;14.41;74.68
64228;BME280;50546;49.146;10.616;2022-09-09T01:40:16;95999.31;;;14.43;74.88
64228;BME280;50546;49.146;10.616;2022-09-09T01:42:42;95993.44;;;14.41;75.26
64228;BME280;50546;49.146;10.616;2022-09-09T01:45:08;95999.13;;;14.36;75.32
64228;BME280;50546;49.146;10.616;2022-09-09T01:47:34;95999.31;;;14.27;75.89
64228;BME280;50546;49.146;10.616;2022-09-09T01:50:01;96003.91;;;14.27;76.48
64228;BME280;50546;49.146;10.616;2022-09-09T01:52:27;95998.75;;;14.21;76.82
64228;BME280;50546;49.146;10.616;2022-09-09T01:54:52;95988.50;;;14.15;76.75
64228;BME280;50546;49.146;10.616;2022-09-09T01:57:33;95989.09;;;14.08;76.84
64228;BME280;50546;49.146;10.616;2022-09-09T02:00:11;95991.72;;;14.05;77.43
64228;BME280;50546;49.146;10.616;2022-09-09T02:02:59;95994.22;;;13.97;78.54
64228;BME280;50546;49.146;10.616;2022-09-09T02:05:38;95982.09;;;13.91;78.74
64228;BME280;50546;49.146;10.616;2022-09-09T02:08:34;95983.09;;;13.87;78.68
64228;BME280;50546;49.146;10.616;2022-09-09T02:11:07;95979.00;;;13.77;78.95
64228;BME280;50546;49.146;10.616;2022-09-09T02:13:38;95975.03;;;13.75;79.26
64228;BME280;50546;49.146;10.616;2022-09-09T02:16:10;95983.06;;;13.71;79.18
64228;BME280;50546;49.146;10.616;2022-09-09T02:19:03;95981.69;;;13.77;79.15
64228;BME280;50546;49.146;10.616;2022-09-09T02:21:32;95972.91;;;13.80;79.12
64228;BME280;50546;49.146;10.616;2022-09-09T02:24:02;95987.31;;;13.84;78.77
64228;BME280;50546;49.146;10.616;2022-09-09T02:26:31;95990.81;;;13.85;79.10
64228;BME280;50546;49.146;10.616;2022-09-09T02:29:01;95979.09;;;13.81;79.60
64228;BME280;50546;49.146;10.616;2022-09-09T02:31:28;95982.91;;;13.80;79.77
64228;BME280;50546;49.146;10.616;2022-09-09T02:33:59;95984.31;;;13.73;79.98
64228;BME280;50546;49.146;10.616;2022-09-09T02:36:30;95991.28;;;13.75;79.76
64228;BME280;50546;49.146;10.616;2022-09-09T02:38:56;95992.31;;;13.70;80.25
64228;BME280;50546;49.146;10.616;2022-09-09T02:41:28;95990.41;;;13.70;80.26
64228;BME280;50546;49.146;10.616;2022-09-09T02:43:56;95985.25;;;13.65;80.37
64228;BME280;50546;49.146;10.616;2022-09-09T02:49:03;95987.03;;;13.61;80.44
64228;BME280;50546;49.146;10.616;2022-09-09T02:54:22;95982.06;;;13.63;79.65
64228;BME280;50546;49.146;10.616;2022-09-09T02:56:52;95982.44;;;13.62;80.45
64228;BME280;50546;49.146;10.616;2022-09-09T02:59:22;95981.19;;;13.59;80.08
64228;BME280;50546;49.146;10.616;2022-09-09T03:01:47;95987.75;;;13.58;80.07
64228;BME280;50546;49.146;10.616;2022-09-09T03:04:13;95992.03;;;13.59;80.41
64228;BME280;50546;49.146;10.616;2022-09-09T03:06:38;95987.75;;;13.58;80.30
64228;BME280;50546;49.146;10.616;2022-09-09T03:09:04;95984.13;;;13.54;80.31
64228;BME280;50546;49.146;10.616;2022-09-09T03:11:29;95979.84;;;13.53;80.75
64228;BME280;50546;49.146;10.616;2022-09-09T03:13:55;95977.03;;;13.49;80.44
64228;BME280;50546;49.146;10.616;2022-09-09T03:16:22;95984.47;;;13.53;80.06
64228;BME280;50546;49.146;10.616;2022-09-09T03:18:47;95982.66;;;13.57;80.29
64228;BME280;50546;49.146;10.616;2022-09-09T03:21:12;95976.22;;;13.61;79.49
64228;BME280;50546;49.146;10.616;2022-09-09T03:23:38;95976.31;;;13.65;79.19
64228;BME280;50546;49.146;10.616;2022-09-09T03:26:04;95978.91;;;13.61;79.52
64228;BME280;50546;49.146;10.616;2022-09-09T03:28:30;95978.91;;;13.61;80.30
64228;BME280;50546;49.146;10.616;2022-09-09T03:31:01;95976.31;;;13.65;79.69
64228;BME280;50546;49.146;10.616;2022-09-09T03:33:27;95978.59;;;13.63;80.03
64228;BME280;50546;49.146;10.616;2022-09-09T03:35:52;95977.81;;;13.62;79.98
64228;BME280;50546;49.146;10.616;2022-09-09T03:38:18;95974.63;;;13.60;80.39
64228;BME280;50546;49.146;10.616;2022-09-09T03:40:54;95988.97;;;13.61;80.37
64228;BME280;50546;49.146;10.616;2022-09-09T03:43:21;95971.16;;;13.60;80.22
64228;BME280;50546;49.146;10.616;2022-09-09T03:45:47;95980.84;;;13.61;80.28
64228;BME280;50546;49.146;10.616;2022-09-09T03:48:13;95978.47;;;13.59;80.23
64228;BME280;50546;49.146;10.616;2022-09-09T03:50:38;95980.72;;;13.57;80.87
64228;BME280;50546;49.146;10.616;2022-09-09T03:53:04;95983.00;;;13.55;80.91
64228;BME280;50546;49.146;10.616;2022-09-09T03:55:31;95977.94;;;13.54;80.72
64228;BME280;50546;49.146;10.616;2022-09-09T03:57:56;95979.16;;;13.56;80.07
64228;BME280;50546;49.146;10.616;2022-09-09T04:00:21;95977.25;;;13.57;80.42
64228;BME280;50546;49.146;10.616;2022-09-09T04:02:46;95971.81;;;13.57;79.97
64228;BME280;50546;49.146;10.616;2022-09-09T04:05:12;95971.72;;;13.53;80.50
64228;BME280;50546;49.146;10.616;2022-09-09T04:07:38;95970.94;;;13.53;80.54
64228;BME280;50546;49.146;10.616;2022-09-09T04:10:04;95982.22;;;13.55;80.50
64228;BME280;50546;49.146;10.616;2022-09-09T04:12:29;95981.88;;;13.56;79.84
64228;BME280;50546;49.146;10.616;2022-09-09T04:14:54;95984.13;;;13.54;79.87
64228;BME280;50546;49.146;10.616;2022-09-09T04:17:19;95984.13;;;13.54;79.71
64228;BME280;50546;49.146;10.616;2022-09-09T04:19:45;95978.28;;;13.52;79.91
64228;BME280;50546;49.146;10.616;2022-09-09T04:22:10;95965.53;;;13.53;80.40
64228;BME280;50546;49.146;10.616;2022-09-09T04:24:35;95963.41;;;13.46;80.26
64228;BME280;50546;49.146;10.616;2022-09-09T04:27:01;95973.81;;;13.44;80.56
64228;BME280;50546;49.146;10.616;2022-09-09T04:29:26;95971.19;;;13.47;80.09
64228;BME280;50546;49.146;10.616;2022-09-09T04:31:51;95972.88;;;13.52;80.24
64228;BME280;50546;49.146;10.616;2022-09-09T04:34:17;95976.09;;;13.58;79.35
64228;BME280;50546;49.146;10.616;2022-09-09T04:36:42;95984.00;;;13.63;79.68
64228;BME280;50546;49.146;10.616;2022-09-09T04:39:07;95994.94;;;13.66;79.39
64228;BME280;50546;49.146;10.616;2022-09-09T04:41:33;96002.38;;;13.69;78.52
64228;BME280;50546;49.146;10.616;2022-09-09T04:43:58;96000.56;;;13.73;78.69
64228;BME280;50546;49.146;10.616;2022-09-09T04:46:25;96002.81;;;13.71;78.78
64228;BME280;50546;49.146;10.616;2022-09-09T04:48:50;95998.63;;;13.74;78.17
64228;BME280;50546;49.146;10.616;2022-09-09T04:51:17;96005.59;;;13.75;78.11
64228;BME280;50546;49.146;10.616;2022-09-09T04:53:42;96006.84;;;13.78;78.32
64228;BME280;50546;49.146;10.616;2022-09-09T04:56:12;96010.38;;;13.66;79.18
64228;BME280;50546;49.146;10.616;2022-09-09T04:58:39;96015.69;;;13.62;78.91
64228;BME280;50546;49.146;10.616;2022-09-09T05:01:08;96012.53;;;13.60;79.20
64228;BME280;50546;49.146;10.616;2022-09-09T05:03:34;96005.66;;;13.63;79.13
64228;BME280;50546;49.146;10.616;2022-09-09T05:06:11;96015.22;;;13.72;78.45
64228;BME280;50546;49.146;10.616;2022-09-09T05:08:38;96023.19;;;13.81;77.93
64228;BME280;50546;49.146;10.616;2022-09-09T05:11:23;96023.28;;;13.85;77.73
64228;BME280;50546;49.146;10.616;2022-09-09T05:13:50;96030.75;;;13.88;77.82
64228;BME280;50546;49.146;10.616;2022-09-09T05:16:16;96026.34;;;13.83;78.53
64228;BME280;50546;49.146;10.616;2022-09-09T05:18:42;96031.22;;;13.78;77.86
64228;BME280;50546;49.146;10.616;2022-09-09T05:21:12;96034.03;;;13.81;78.77
64228;BME280;50546;49.146;10.616;2022-09-09T05:23:38;96031.84;;;13.87;78.13
64228;BME280;50546;49.146;10.616;2022-09-09T05:26:03;96043.78;;;13.98;77.60
64228;BME280;50546;49.146;10.616;2022-09-09T05:28:29;96034.84;;;14.10;76.11
64228;BME280;50546;49.146;10.616;2022-09-09T05:31:00;96037.88;;;14.08;77.25
64228;BME280;50546;49.146;10.616;2022-09-09T05:33:27;96025.75;;;13.90;78.01
64228;BME280;50546;49.146;10.616;2022-09-09T05:36:00;96019.72;;;13.81;78.84
64228;BME280;50546;49.146;10.616;2022-09-09T05:38:26;96021.72;;;13.84;78.77
64228;BME280;50546;49.146;10.616;2022-09-09T05:40:52;96028.16;;;13.79;78.74
64228;BME280;50546;49.146;10.616;2022-09-09T05:43:18;96031.94;;;13.62;79.31
64228;BME280;50546;49.146;10.616;2022-09-09T05:45:48;96032.41;;;13.52;80.00
64228;BME280;50546;49.146;10.616;2022-09-09T05:48:23;96036.25;;;13.51;80.72
64228;BME280;50546;49.146;10.616;2022-09-09T05:50:53;96033.41;;;13.60;79.58
64228;BME280;50546;49.146;10.616;2022-09-09T05:53:19;96026.16;;;13.64;79.67
64228;BME280;50546;49.146;10.616;2022-09-09T05:55:45;96033.97;;;13.65;78.98
64228;BME280;50546;49.146;10.616;2022-09-09T05:58:10;96026.75;;;13.69;78.98
64228;BME280;50546;49.146;10.616;2022-09-09T06:00:36;96038.88;;;13.76;79.02
64228;BME280;50546;49.146;10.616;2022-09-09T06:03:01;96040.13;;;13.78;78.82
64228;BME280;50546;49.146;10.616;2022-09-09T06:05:27;96037.88;;;13.80;78.97
64228;BME280;50546;49.146;10.616;2022-09-09T06:07:53;96038.41;;;13.86;79.47
64228;BME280;50546;49.146;10.616;2022-09-09T06:10:18;96041.13;;;13.86;78.97
64228;BME280;50546;49.146;10.616;2022-09-09T06:12:44;96031.84;;;13.87;79.14
64228;BME280;50546;49.146;10.616;2022-09-09T06:15:09;96034.66;;;13.90;78.68
64228;BME280;50546;49.146;10.616;2022-09-09T06:17:35;96038.72;;;13.96;78.22
64228;BME280;50546;49.146;10.616;2022-09-09T06:20:00;96029.13;;;13.99;79.09
64228;BME280;50546;49.146;10.616;2022-09-09T06:22:25;96039.88;;;14.11;78.48
64228;BME280;50546;49.146;10.616;2022-09-09T06:24:50;96044.56;;;14.27;77.16
64228;BME280;50546;49.146;10.616;2022-09-09T06:27:16;96029.22;;;14.47;76.45
64228;BME280;50546;49.146;10.616;2022-09-09T06:29:41;96034.34;;;14.80;74.11
64228;BME280;50546;49.146;10.616;2022-09-09T06:32:06;96028.94;;;15.11;74.53
64228;BME280;50546;49.146;10.616;2022-09-09T06:34:34;96030.06;;;15.61;72.48
64228;BME280;50546;49.146;10.616;2022-09-09T06:37:00;96027.69;;;15.95;70.56
64228;BME280;50546;49.146;10.616;2022-09-09T06:39:26;96036.19;;;16.13;70.58
64228;BME280;50546;49.146;10.616;2022-09-09T06:41:51;96034.16;;;16.29;70.00
64228;BME280;50546;49.146;10.616;2022-09-09T06:44:18;96036.09;;;16.29;69.52
64228;BME280;50546;49.146;10.616;2022-09-09T06:46:44;96039.66;;;16.52;69.61
64228;BME280;50546;49.146;10.616;2022-09-09T06:49:12;96036.97;;;16.75;69.32
64228;BME280;50546;49.146;10.616;2022-09-09T06:51:38;96026.75;;;17.15;66.76
64228;BME280;50546;49.146;10.616;2022-09-09T06:54:07;96042.88;;;17.27;66.26
64228;BME280;50546;49.146;10.616;2022-09-09T06:56:35;96039.25;;;17.19;65.53
64228;BME280;50546;49.146;10.616;2022-09-09T06:59:03;96034.84;;;17.11;65.98
64228;BME280;50546;49.146;10.616;2022-09-09T07:01:32;96039.69;;;17.21;66.33
64228;BME280;50546;49.146;10.616;2022-09-09T07:03:58;96052.91;;;17.49;65.74
64228;BME280;50546;49.146;10.616;2022-09-09T07:06:30;96055.56;;;17.69;64.15
64228;BME280;50546;49.146;10.616;2022-09-09T07:08:57;96050.22;;;17.76;64.22
64228;BME280;50546;49.146;10.616;2022-09-09T07:11:26;96044.44;;;18.11;63.77
64228;BME280;50546;49.146;10.616;2022-09-09T07:13:52;96049.88;;;18.41;62.87
64228;BME280;50546;49.146;10.616;2022-09-09T07:16:19;96044.22;;;18.61;60.59
64228;BME280;50546;49.146;10.616;2022-09-09T07:18:46;96044.09;;;18.50;61.72
64228;BME280;50546;49.146;10.616;2022-09-09T07:21:12;96042.50;;;18.45;61.78
64228;BME280;50546;49.146;10.616;2022-09-09T07:23:39;96050.06;;;18.59;62.19
64228;BME280;50546;49.146;10.616;2022-09-09T07:26:12;96049.09;;;18.78;61.11
64228;BME280;50546;49.146;10.616;2022-09-09T07:28:38;96051.63;;;19.01;59.99
64228;BME280;50546;49.146;10.616;2022-09-09T07:31:05;96048.63;;;19.17;60.75
64228;BME280;50546;49.146;10.616;2022-09-09T07:33:32;96047.16;;;19.27;58.70
64228;BME280;50546;49.146;10.616;2022-09-09T07:36:06;96052.28;;;19.35;59.70
64228;BME280;50546;49.146;10.616;2022-09-09T07:38:37;96054.38;;;19.53;58.88
64228;BME280;50546;49.146;10.616;2022-09-09T07:41:05;96056.97;;;19.86;57.15
64228;BME280;50546;49.146;10.616;2022-09-09T07:43:30;96059.34;;;19.95;57.47
64228;BME280;50546;49.146;10.616;2022-09-09T07:46:00;96057.56;;;20.31;55.19
64228;BME280;50546;49.146;10.616;2022-09-09T07:48:28;96058.03;;;20.55;55.40
64228;BME280;50546;49.146;10.616;2022-09-09T07:51:04;96054.88;;;20.46;55.44
64228;BME280;50546;49.146;10.616;2022-09-09T07:53:31;96059.97;;;20.51;54.81
64228;BME280;50546;49.146;10.616;2022-09-09T07:56:05;96056.09;;;20.62;53.32
64228;BME280;50546;49.146;10.616;2022-09-09T07:58:31;96054.94;;;20.60;53.82
64228;BME280;50546;49.146;10.616;2022-09-09T08:00:56;96047.81;;;20.41;53.41
64228;BME280;50546;49.146;10.616;2022-09-09T08:03:22;96049.38;;;20.38;53.86
64228;BME280;50546;49.146;10.616;2022-09-09T08:05:48;96055.63;;;20.39;53.63
64228;BME280;50546;49.146;10.616;2022-09-09T08:08:14;96051.03;;;20.61;54.55
64228;BME280;50546;49.146;10.616;2022-09-09T08:10:39;96053.00;;;20.64;52.20
64228;BME280;50546;49.146;10.616;2022-09-09T08:15:31;96066.25;;;20.51;52.22
64228;BME280;50546;49.146;10.616;2022-09-09T08:17:57;96075.94;;;20.34;53.03
64228;BME280;50546;49.146;10.616;2022-09-09T08:20:22;96068.91;;;20.37;54.30
64228;BME280;50546;49.146;10.616;2022-09-09T08:22:48;96070.56;;;20.56;53.19
64228;BME280;50546;49.146;10.616;2022-09-09T08:25:15;96069.44;;;20.67;54.78
64228;BME280;50546;49.146;10.616;2022-09-09T08:27:40;96073.38;;;20.77;53.05
64228;BME280;50546;49.146;10.616;2022-09-09T08:30:06;96071.38;;;20.67;53.98
64228;BME280;50546;49.146;10.616;2022-09-09T08:32:32;96073.78;;;20.90;54.26
64228;BME280;50546;49.146;10.616;2022-09-09T08:34:57;96072.63;;;21.16;51.50
64228;BME280;50546;49.146;10.616;2022-09-09T08:37:22;96075.00;;;21.21;51.38
64228;BME280;50546;49.146;10.616;2022-09-09T08:39:48;96080.09;;;21.33;51.84
64228;BME280;50546;49.146;10.616;2022-09-09T08:42:25;96081.63;;;21.24;51.36
64228;BME280;50546;49.146;10.616;2022-09-09T08:48:17;96058.94;;;21.30;53.09
64228;BME280;50546;49.146;10.616;2022-09-09T08:50:50;96071.47;;;21.46;52.49
64228;BME280;50546;49.146;10.616;2022-09-09T08:53:24;96067.16;;;21.55;51.93
64228;BME280;50546;49.146;10.616;2022-09-09T08:56:00;96078.13;;;21.45;51.87
64228;BME280;50546;49.146;10.616;2022-09-09T08:58:27;96067.97;;;21.34;53.13
64228;BME280;50546;49.146;10.616;2022-09-09T09:09:24;96063.97;;;21.93;50.25
64228;BME280;50546;49.146;10.616;2022-09-09T09:11:55;96065.88;;;22.17;49.88
64228;BME280;50546;49.146;10.616;2022-09-09T09:14:28;96062.25;;;22.42;49.20
64228;BME280;50546;49.146;10.616;2022-09-09T09:16:57;96068.50;;;22.46;48.94
64228;BME280;50546;49.146;10.616;2022-09-09T09:19:24;96064.44;;;22.75;48.41
64228;BME280;50546;49.146;10.616;2022-09-09T09:21:56;96056.88;;;22.90;48.30
64228;BME280;50546;49.146;10.616;2022-09-09T09:27:13;96054.44;;;23.10;46.74
64228;BME280;50546;49.146;10.616;2022-09-09T09:29:40;96049.75;;;23.07;47.02
64228;BME280;50546;49.146;10.616;2022-09-09T09:32:11;96041.81;;;23.16;46.58
64228;BME280;50546;49.146;10.616;2022-09-09T09:34:39;96049.34;;;23.05;45.84
64228;BME280;50546;49.146;10.616;2022-09-09T09:37:19;96049.63;;;23.21;47.60
64228;BME280;50546;49.146;10.616;2022-09-09T09:39:48;96050.16;;;23.54;47.46
64228;BME280;50546;49.146;10.616;2022-09-09T09:42:16;96051.94;;;23.26;44.87
64228;BME280;50546;49.146;10.616;2022-09-09T09:44:43;96052.94;;;22.95;46.09
64228;BME280;50546;49.146;10.616;2022-09-09T09:47:20;96059.28;;;22.92;46.86
64228;BME280;50546;49.146;10.616;2022-09-09T09:49:52;96062.28;;;23.08;46.81
64228;BME280;50546;49.146;10.616;2022-09-09T09:52:23;96060.56;;;23.32;45.87
64228;BME280;50546;49.146;10.616;2022-09-09T09:54:49;96065.66;;;23.30;44.66
64228;BME280;50546;49.146;10.616;2022-09-09T09:57:17;96059.69;;;23.42;46.03
64228;BME280;50546;49.146;10.616;2022-09-09T09:59:43;96058.53;;;23.40;45.55
64228;BME280;50546;49.146;10.616;2022-09-09T10:02:17;96058.88;;;23.42;45.53
64228;BME280;50546;49.146;10.616;2022-09-09T10:04:43;96053.69;;;23.06;46.43
64228;BME280;50546;49.146;10.616;2022-09-09T10:07:18;96056.06;;;23.00;47.16
64228;BME280;50546;49.146;10.616;2022-09-09T10:09:45;96053.78;;;22.85;46.20
64228;BME280;50546;49.146;10.616;2022-09-09T10:15:32;96062.75;;;22.22;47.39
64228;BME280;50546;49.146;10.616;2022-09-09T10:18:25;96044.34;;;22.08;48.45
64228;BME280;50546;49.146;10.616;2022-09-09T10:24:05;96042.25;;;22.45;49.24
64228;BME280;50546;49.146;10.616;2022-09-09T10:26:55;96029.13;;;23.29;47.46
64228;BME280;50546;49.146;10.616;2022-09-09T10:32:36;96021.63;;;23.34;45.79
64228;BME280;50546;49.146;10.616;2022-09-09T10:35:10;96037.53;;;23.12;46.43
64228;BME280;50546;49.146;10.616;2022-09-09T10:37:46;96028.63;;;22.97;46.57
64228;BME280;50546;49.146;10.616;2022-09-09T10:40:28;96024.00;;;22.79;46.81
64228;BME280;50546;49.146;10.616;2022-09-09T10:42:59;96021.41;;;23.17;47.11
64228;BME280;50546;49.146;10.616;2022-09-09T10:45:39;96025.88;;;22.90;46.79
64228;BME280;50546;49.146;10.616;2022-09-09T10:50:46;96023.13;;;22.27;47.92
64228;BME280;50546;49.146;10.616;2022-09-09T10:53:35;96024.00;;;21.95;48.46
64228;BME280;50546;49.146;10.616;2022-09-09T10:56:14;96021.28;;;21.77;48.40
64228;BME280;50546;49.146;10.616;2022-09-09T10:58:48;96023.28;;;21.62;49.41
64228;BME280;50546;49.146;10.616;2022-09-09T11:01:24;96033.47;;;21.62;48.70
64228;BME280;50546;49.146;10.616;2022-09-09T11:03:57;96034.66;;;21.72;49.12
64228;BME280;50546;49.146;10.616;2022-09-09T11:06:32;96031.91;;;21.75;48.49
64228;BME280;50546;49.146;10.616;2022-09-09T11:09:02;96034.66;;;21.61;48.35
64228;BME280;50546;49.146;10.616;2022-09-09T11:11:38;96034.28;;;21.34;48.73
64228;BME280;50546;49.146;10.616;2022-09-09T11:16:51;96024.81;;;21.71;48.32
64228;BME280;50546;49.146;10.616;2022-09-09T11:22:08;96028.97;;;22.29;48.47
64228;BME280;50546;49.146;10.616;2022-09-09T11:24:44;96035.19;;;22.44;47.80
64228;BME280;50546;49.146;10.616;2022-09-09T11:27:20;96031.81;;;21.97;47.97
64228;BME280;50546;49.146;10.616;2022-09-09T11:30:04;96032.19;;;22.02;47.16
64228;BME280;50546;49.146;10.616;2022-09-09T11:38:15;96019.63;;;22.19;47.21
64228;BME280;50546;49.146;10.616;2022-09-09T11:40:41;96020.75;;;22.25;46.89
64228;BME280;50546;49.146;10.616;2022-09-09T11:43:12;96014.63;;;22.73;47.39
64228;BME280;50546;49.146;10.616;2022-09-09T11:45:40;96029.03;;;22.95;46.57
64228;BME280;50546;49.146;10.616;2022-09-09T11:48:45;96019.09;;;23.09;44.73
64228;BME280;50546;49.146;10.616;2022-09-09T11:51:24;96012.38;;;23.17;44.87
64228;BME280;50546;49.146;10.616;2022-09-09T11:53:53;96006.50;;;23.15;45.79
64228;BME280;50546;49.146;10.616;2022-09-09T11:56:33;96001.84;;;23.53;42.31
64228;BME280;50546;49.146;10.616;2022-09-09T11:59:19;95998.09;;;24.08;40.71
64228;BME280;50546;49.146;10.616;2022-09-09T12:01:45;96002.19;;;24.27;40.87
64228;BME280;50546;49.146;10.616;2022-09-09T12:06:55;95989.13;;;24.04;40.48
64228;BME280;50546;49.146;10.616;2022-09-09T12:09:31;95984.41;;;25.16;38.03
64228;BME280;50546;49.146;10.616;2022-09-09T12:14:42;95983.34;;;23.53;41.82
64228;BME280;50546;49.146;10.616;2022-09-09T12:17:20;95987.13;;;24.35;41.86
64228;BME280;50546;49.146;10.616;2022-09-09T12:19:47;95981.22;;;24.06;40.13
64228;BME280;50546;49.146;10.616;2022-09-09T12:24:49;95993.41;;;24.05;41.21
64228;BME280;50546;49.146;10.616;2022-09-09T12:27:41;95986.31;;;24.08;38.53
64228;BME280;50546;49.146;10.616;2022-09-09T12:30:14;95981.81;;;24.21;39.72
64228;BME280;50546;49.146;10.616;2022-09-09T12:32:39;95973.00;;;24.33;40.18
64228;BME280;50546;49.146;10.616;2022-09-09T12:35:15;95983.44;;;24.18;40.26
64228;BME280;50546;49.146;10.616;2022-09-09T12:37:59;95972.13;;;24.40;40.71
64228;BME280;50546;49.146;10.616;2022-09-09T12:40:32;95980.47;;;24.33;38.52
64228;BME280;50546;49.146;10.616;2022-09-09T12:43:00;95971.44;;;23.67;38.49
64228;BME280;50546;49.146;10.616;2022-09-09T12:45:29;95973.50;;;23.94;39.27
64228;BME280;50546;49.146;10.616;2022-09-09T12:48:09;95964.81;;;24.57;39.46
64228;BME280;50546;49.146;10.616;2022-09-09T12:50:50;95963.31;;;24.52;38.12
64228;BME280;50546;49.146;10.616;2022-09-09T12:53:32;95967.84;;;24.35;38.02
64228;BME280;50546;49.146;10.616;2022-09-09T12:56:01;95962.22;;;24.46;39.32
64228;BME280;50546;49.146;10.616;2022-09-09T12:58:29;95963.59;;;25.12;38.29
64228;BME280;50546;49.146;10.616;2022-09-09T13:00:59;95959.25;;;25.58;37.40
64228;BME280;50546;49.146;10.616;2022-09-09T13:03:25;95956.19;;;25.52;37.48
64228;BME280;50546;49.146;10.616;2022-09-09T13:05:51;95969.81;;;25.39;39.67
64228;BME280;50546;49.146;10.616;2022-09-09T13:08:18;95966.59;;;25.21;39.82
64228;BME280;50546;49.146;10.616;2022-09-09T13:10:59;95964.28;;;24.92;39.95
64228;BME280;50546;49.146;10.616;2022-09-09T13:13:37;95961.47;;;24.96;40.72
64228;BME280;50546;49.146;10.616;2022-09-09T13:16:06;95974.09;;;25.20;39.20
64228;BME280;50546;49.146;10.616;2022-09-09T13:18:40;95958.72;;;25.19;39.05
64228;BME280;50546;49.146;10.616;2022-09-09T13:21:06;95958.72;;;24.69;38.25
64228;BME280;50546;49.146;10.616;2022-09-09T13:23:36;95962.19;;;24.77;39.49
64228;BME280;50546;49.146;10.616;2022-09-09T13:26:05;95954.34;;;24.98;38.58
64228;BME280;50546;49.146;10.616;2022-09-09T13:28:33;95946.75;;;25.30;38.59
64228;BME280;50546;49.146;10.616;2022-09-09T13:31:05;95948.34;;;25.51;38.37
64228;BME280;50546;49.146;10.616;2022-09-09T13:33:37;95954.94;;;25.10;38.51
64228;BME280;50546;49.146;10.616;2022-09-09T13:36:05;95953.03;;;24.56;38.92
64228;BME280;50546;49.146;10.616;2022-09-09T13:38:35;95957.84;;;24.18;39.91
64228;BME280;50546;49.146;10.616;2022-09-09T13:41:04;95962.09;;;23.58;41.68
64228;BME280;50546;49.146;10.616;2022-09-09T13:43:41;95986.91;;;23.05;43.17
64228;BME280;50546;49.146;10.616;2022-09-09T13:49:00;96005.19;;;22.74;47.20
64228;BME280;50546;49.146;10.616;2022-09-09T13:51:41;96001.66;;;23.29;45.20
64228;BME280;50546;49.146;10.616;2022-09-09T13:54:12;96008.06;;;23.57;44.18
64228;BME280;50546;49.146;10.616;2022-09-09T13:56:39;96009.97;;;23.60;44.69
64228;BME280;50546;49.146;10.616;2022-09-09T13:59:09;96010.59;;;23.82;43.71
64228;BME280;50546;49.146;10.616;2022-09-09T14:01:35;96003.97;;;24.10;43.22
64228;BME280;50546;49.146;10.616;2022-09-09T14:04:02;95997.53;;;24.82;41.92
64228;BME280;50546;49.146;10.616;2022-09-09T14:06:27;95996.50;;;25.46;39.50
64228;BME280;50546;49.146;10.616;2022-09-09T14:08:54;95990.34;;;26.02;39.51
64228;BME280;50546;49.146;10.616;2022-09-09T14:11:20;95986.56;;;26.88;36.75
64228;BME280;50546;49.146;10.616;2022-09-09T14:13:47;95995.63;;;26.32;36.92
64228;BME280;50546;49.146;10.616;2022-09-09T14:16:12;95987.38;;;24.75;39.18
64228;BME280;50546;49.146;10.616;2022-09-09T14:18:37;95983.81;;;23.86;42.42
64228;BME280;50546;49.146;10.616;2022-09-09T14:21:04;95986.84;;;23.13;43.95
64228;BME280;50546;49.146;10.616;2022-09-09T14:23:29;95980.91;;;22.66;45.40
64228;BME280;50546;49.146;10.616;2022-09-09T14:25:55;95977.09;;;22.49;45.67
64228;BME280;50546;49.146;10.616;2022-09-09T14:28:20;95972.38;;;22.53;44.46
64228;BME280;50546;49.146;10.616;2022-09-09T14:30:46;95977.38;;;23.21;44.27
64228;BME280;50546;49.146;10.616;2022-09-09T14:33:14;95962.19;;;25.24;38.26
64228;BME280;50546;49.146;10.616;2022-09-09T14:35:40;95960.53;;;26.85;35.63
64228;BME280;50546;49.146;10.616;2022-09-09T14:38:06;95963.22;;;27.22;35.00